Time;durP1;ratioP1;P1;durP2;ratioP2;P2;SDS_P1;SDS_P2;PMS_P1;PMS_P2;Temp;Humidity;BMP_temperature;BMP_pressure;BME280_temperature;BME280_humidity;BME280_pressure;Samples;Min_cycle;Max_cycle;Signal;HPM_P1;HPM_P2
2023/06/25 00:01:29;;;;;;;6.55;4.78;;;;;;;21.45;54.15;100743.72;10278196;28;20057;-63
2023/06/25 00:06:31;;;;;;;6.35;4.57;;;;;;;21.34;54.24;100742.59;10279505;28;20042;-62
2023/06/25 00:11:32;;;;;;;6.40;4.55;;;;;;;21.28;54.34;100748.19;10278236;28;20053;-63
2023/06/25 00:16:34;;;;;;;6.22;4.97;;;;;;;21.20;54.90;100739.25;10278825;28;20065;-63
2023/06/25 00:21:37;;;;;;;8.27;5.43;;;;;;;21.19;54.63;100734.06;10278223;28;20057;-63
2023/06/25 00:26:45;;;;;;;8.25;5.82;;;;;;;21.11;55.22;100735.22;10278233;28;20053;-64
2023/06/25 00:31:46;;;;;;;6.80;5.15;;;;;;;21.03;54.88;100726.53;10277204;28;20077;-62
2023/06/25 00:36:51;;;;;;;6.35;4.53;;;;;;;20.95;55.26;100728.56;10276660;28;20046;-62
2023/06/25 00:41:58;;;;;;;9.13;4.60;;;;;;;20.87;55.59;100723.41;10275636;28;20050;-62
2023/06/25 00:46:59;;;;;;;9.13;5.15;;;;;;;20.79;55.37;100716.41;10268667;28;20063;-63
2023/06/25 00:52:08;;;;;;;6.50;5.13;;;;;;;20.66;55.72;100713.88;10285494;28;20066;-62
2023/06/25 00:57:10;;;;;;;5.85;4.97;;;;;;;20.57;56.33;100720.72;10285592;28;20058;-63
2023/06/25 01:02:21;;;;;;;9.93;5.63;;;;;;;20.53;56.23;100709.41;10285068;28;20067;-63
2023/06/25 01:07:25;;;;;;;11.88;6.15;;;;;;;20.49;56.55;100712.84;10286080;28;20401;-62
2023/06/25 01:12:26;;;;;;;6.90;4.60;;;;;;;20.49;56.62;100715.59;10284944;28;20043;-62
2023/06/25 01:17:29;;;;;;;6.32;4.43;;;;;;;20.44;56.64;100720.91;10284200;28;20402;-62
2023/06/25 01:22:32;;;;;;;9.30;4.22;;;;;;;20.43;56.67;100717.34;10284712;28;20141;-63
2023/06/25 01:27:34;;;;;;;5.70;4.55;;;;;;;20.40;56.95;100723.28;10284386;28;20468;-63
2023/06/25 01:32:36;;;;;;;6.07;4.88;;;;;;;20.38;57.05;100720.78;10282657;28;20051;-62
2023/06/25 01:37:37;;;;;;;7.55;4.55;;;;;;;20.36;56.78;100709.25;10284525;28;20118;-62
2023/06/25 01:42:39;;;;;;;7.18;4.60;;;;;;;20.28;57.06;100706.84;10266009;28;20062;-62
2023/06/25 01:47:41;;;;;;;6.55;4.28;;;;;;;20.20;57.39;100704.41;10283747;28;20071;-62
2023/06/25 01:52:43;;;;;;;6.75;4.97;;;;;;;20.21;57.21;100701.47;10281002;28;20061;-62
2023/06/25 01:57:44;;;;;;;5.78;4.35;;;;;;;20.13;57.51;100693.59;10283800;28;20061;-62
2023/06/25 02:02:49;;;;;;;10.38;4.70;;;;;;;20.01;57.61;100698.19;10282501;28;20053;-62
2023/06/25 02:07:51;;;;;;;11.50;6.25;;;;;;;19.77;58.32;100692.59;10282910;28;20450;-61
2023/06/25 02:12:53;;;;;;;9.30;6.25;;;;;;;19.71;58.46;100682.59;10281238;28;20057;-63
2023/06/25 02:17:54;;;;;;;8.38;5.95;;;;;;;19.70;58.29;100682.78;10283133;28;20477;-63
2023/06/25 02:22:56;;;;;;;10.50;7.32;;;;;;;19.65;58.58;100680.75;10282473;28;20060;-63
2023/06/25 02:27:57;;;;;;;8.88;5.60;;;;;;;19.60;58.74;100670.50;10281956;28;20442;-62
2023/06/25 02:32:58;;;;;;;11.38;7.90;;;;;;;19.49;58.91;100665.00;10279645;28;20065;-62
2023/06/25 02:38:00;;;;;;;10.52;8.25;;;;;;;19.42;59.23;100665.06;10281220;28;20600;-62
2023/06/25 02:43:02;;;;;;;11.88;6.18;;;;;;;19.39;59.17;100668.25;10263080;28;20078;-62
2023/06/25 02:48:03;;;;;;;8.02;5.03;;;;;;;19.35;59.23;100661.56;10280977;28;20051;-63
2023/06/25 02:53:05;;;;;;;7.82;5.53;;;;;;;19.26;59.34;100663.78;10280407;28;20058;-64
2023/06/25 02:58:06;;;;;;;7.10;5.30;;;;;;;19.23;59.42;100661.50;10266939;28;20062;-62
2023/06/25 03:03:08;;;;;;;9.38;5.80;;;;;;;19.25;59.55;100664.81;10280038;28;20062;-62
2023/06/25 03:08:10;;;;;;;8.20;5.05;;;;;;;19.24;59.63;100663.16;10278709;28;20058;-63
2023/06/25 03:13:11;;;;;;;8.90;5.15;;;;;;;19.27;59.46;100667.34;10280114;28;20055;-62
2023/06/25 03:18:13;;;;;;;10.18;5.28;;;;;;;19.26;59.49;100671.13;10279398;28;20050;-67
2023/06/25 03:23:16;;;;;;;11.35;5.45;;;;;;;19.26;59.56;100660.22;10277258;28;20073;-67
2023/06/25 03:28:17;;;;;;;9.43;5.05;;;;;;;19.27;59.72;100661.88;10279722;28;20051;-66
2023/06/25 03:33:19;;;;;;;10.77;5.18;;;;;;;19.25;59.84;100659.38;10260528;28;20094;-68
2023/06/25 03:38:20;;;;;;;10.23;4.55;;;;;;;19.24;59.86;100659.63;10277848;28;20051;-66
2023/06/25 03:43:22;;;;;;;8.90;4.72;;;;;;;19.24;59.87;100660.44;10277459;28;20059;-66
2023/06/25 03:48:23;;;;;;;8.32;4.90;;;;;;;19.17;59.96;100659.66;10277961;28;20054;-67
2023/06/25 03:53:26;;;;;;;8.48;5.38;;;;;;;19.24;59.81;100656.91;10278947;28;20050;-67
2023/06/25 03:58:27;;;;;;;9.23;4.32;;;;;;;19.25;59.64;100653.09;10278654;28;20058;-68
2023/06/25 04:03:29;;;;;;;7.07;4.68;;;;;;;19.30;59.91;100654.09;10278726;28;20070;-67
2023/06/25 04:08:30;;;;;;;10.80;4.57;;;;;;;19.37;59.90;100656.72;10278001;28;20061;-67
2023/06/25 04:13:32;;;;;;;6.72;4.13;;;;;;;19.46;59.74;100655.38;10278970;28;20047;-67
2023/06/25 04:18:33;;;;;;;8.70;5.05;;;;;;;19.55;59.69;100644.97;10276702;28;20062;-67
2023/06/25 04:23:34;;;;;;;10.60;4.47;;;;;;;19.59;59.52;100652.50;10278344;28;20051;-67
2023/06/25 04:28:36;;;;;;;5.40;4.22;;;;;;;19.62;59.70;100645.75;10277441;28;20065;-66
2023/06/25 04:33:41;;;;;;;14.80;5.30;;;;;;;19.67;59.89;100650.50;10278733;28;20046;-67
2023/06/25 04:38:43;;;;;;;10.18;4.47;;;;;;;19.70;59.82;100653.63;10277471;28;20065;-67
2023/06/25 04:43:44;;;;;;;10.15;4.80;;;;;;;19.80;59.79;100645.75;10278611;28;20057;-67
2023/06/25 04:48:46;;;;;;;11.23;5.20;;;;;;;19.87;59.58;100647.59;10275981;28;20141;-67
2023/06/25 04:53:47;;;;;;;7.97;4.82;;;;;;;19.96;59.65;100654.38;10278000;28;20461;-67
2023/06/25 04:58:49;;;;;;;8.00;5.80;;;;;;;20.05;59.38;100650.25;10278728;28;20051;-67
2023/06/25 05:03:50;;;;;;;7.78;4.00;;;;;;;20.23;59.37;100651.28;10277292;28;20051;-67
2023/06/25 05:08:52;;;;;;;8.90;5.15;;;;;;;20.32;59.37;100658.06;10277937;28;20086;-67
2023/06/25 05:13:53;;;;;;;11.88;4.18;;;;;;;20.47;59.35;100657.63;10277851;28;20517;-68
2023/06/25 05:18:55;;;;;;;7.00;3.92;;;;;;;20.64;59.42;100655.91;10278291;28;20104;-67
2023/06/25 05:23:59;;;;;;;6.30;4.05;;;;;;;20.84;58.75;100643.81;10266005;28;20051;-67
2023/06/25 05:29:01;;;;;;;7.40;3.97;;;;;;;21.00;58.92;100651.31;10259441;28;20413;-67
2023/06/25 05:34:03;;;;;;;9.43;4.70;;;;;;;21.11;58.75;100647.75;10265869;28;20133;-67
2023/06/25 05:39:04;;;;;;;6.20;4.18;;;;;;;21.30;58.64;100653.06;10284197;28;20086;-67
2023/06/25 05:44:06;;;;;;;6.65;4.07;;;;;;;21.44;59.08;100645.47;10283072;28;20050;-68
2023/06/25 05:49:11;;;;;;;9.23;4.07;;;;;;;21.62;58.97;100653.50;10283265;28;20063;-66
2023/06/25 05:54:12;;;;;;;7.95;4.07;;;;;;;21.81;58.23;100647.88;10282041;28;20046;-67
2023/06/25 05:59:14;;;;;;;10.10;4.35;;;;;;;21.99;58.52;100647.69;10282697;28;20046;-66
2023/06/25 06:04:15;;;;;;;9.18;5.00;;;;;;;22.17;58.04;100649.38;10283711;28;20057;-67
2023/06/25 06:09:20;;;;;;;7.93;4.10;;;;;;;22.30;57.46;100651.84;10283025;28;20498;-67
2023/06/25 06:14:22;;;;;;;8.27;4.05;;;;;;;22.41;57.32;100649.28;10282107;28;20195;-67
2023/06/25 06:19:24;;;;;;;4.88;2.95;;;;;;;22.62;56.61;100654.03;10280992;28;20074;-67
2023/06/25 06:24:27;;;;;;;7.03;3.35;;;;;;;22.83;56.07;100655.22;10279505;28;20125;-65
2023/06/25 06:29:28;;;;;;;6.00;3.05;;;;;;;23.01;55.31;100665.06;10275608;28;20057;-64
2023/06/25 06:34:30;;;;;;;5.55;2.78;;;;;;;23.17;54.81;100661.50;10279765;28;20047;-64
2023/06/25 06:39:33;;;;;;;6.78;3.38;;;;;;;23.43;53.91;100655.53;10276335;28;20050;-64
2023/06/25 06:44:34;;;;;;;7.25;2.70;;;;;;;23.56;53.42;100657.94;10277432;28;20043;-65
2023/06/25 06:49:36;;;;;;;5.80;3.17;;;;;;;23.79;52.74;100656.84;10279025;28;20498;-65
2023/06/25 06:54:37;;;;;;;4.68;2.55;;;;;;;24.00;51.77;100663.41;10279431;28;20051;-65
2023/06/25 06:59:38;;;;;;;2.75;2.40;;;;;;;24.20;51.14;100657.28;10282440;28;20058;-65
2023/06/25 07:04:40;;;;;;;5.45;2.75;;;;;;;24.27;50.68;100652.44;10283089;28;20043;-64
2023/06/25 07:09:50;;;;;;;5.15;2.30;;;;;;;24.48;50.18;100656.19;10274195;28;20063;-64
2023/06/25 07:14:52;;;;;;;2.58;2.08;;;;;;;24.75;49.25;100647.09;10279841;28;20666;-66
2023/06/25 07:19:53;;;;;;;4.10;2.42;;;;;;;24.94;48.71;100653.84;10279694;28;20097;-64
2023/06/25 07:24:55;;;;;;;6.40;2.95;;;;;;;25.00;48.83;100659.38;10279933;28;20055;-64
2023/06/25 07:29:57;;;;;;;4.82;2.25;;;;;;;25.18;48.03;100660.84;10278370;28;20069;-64
2023/06/25 07:34:58;;;;;;;4.45;2.42;;;;;;;25.29;48.25;100655.19;10276408;28;20533;-64
2023/06/25 07:40:00;;;;;;;3.70;2.25;;;;;;;25.50;47.28;100653.38;10279512;28;20085;-69
2023/06/25 07:45:01;;;;;;;3.80;2.38;;;;;;;25.73;45.78;100648.50;10260513;28;20057;-68
2023/06/25 07:50:03;;;;;;;2.65;2.03;;;;;;;25.90;45.55;100651.03;10279378;28;20051;-69
2023/06/25 07:55:06;;;;;;;3.65;2.42;;;;;;;26.04;44.69;100643.94;10277211;28;20648;-69
2023/06/25 08:00:08;;;;;;;2.92;2.28;;;;;;;26.17;44.41;100639.03;10262593;28;20047;-69
2023/06/25 08:05:10;;;;;;;4.20;2.17;;;;;;;26.39;43.54;100636.00;10276872;28;20051;-70
2023/06/25 08:10:12;;;;;;;3.10;2.33;;;;;;;26.61;43.41;100642.09;10279021;28;20418;-69
2023/06/25 08:15:13;;;;;;;5.03;1.83;;;;;;;26.84;42.34;100639.88;10278084;28;20380;-69
2023/06/25 08:20:15;;;;;;;3.75;2.85;;;;;;;26.75;41.90;100636.03;10279367;28;20081;-69
2023/06/25 08:25:26;;;;;;;3.80;2.75;;;;;;;27.02;40.96;100628.25;10278680;28;20054;-69
2023/06/25 08:30:28;;;;;;;4.90;2.42;;;;;;;27.22;40.93;100634.84;10259249;28;20061;-69
2023/06/25 08:35:29;;;;;;;4.15;2.80;;;;;;;27.46;40.71;100630.34;10278171;28;20135;-68
2023/06/25 08:40:31;;;;;;;4.97;2.63;;;;;;;27.68;40.47;100626.41;10278770;28;20043;-69
2023/06/25 08:45:33;;;;;;;3.42;2.50;;;;;;;27.67;40.34;100619.25;10238417;28;20055;-68
2023/06/25 08:50:35;;;;;;;3.55;2.28;;;;;;;27.92;39.47;100623.81;10278304;28;20133;-68
2023/06/25 08:55:38;;;;;;;8.75;2.25;;;;;;;28.04;39.11;100610.47;10278511;28;20057;-70
2023/06/25 09:00:40;;;;;;;3.33;2.50;;;;;;;28.15;38.82;100610.41;10259887;28;20043;-69
2023/06/25 09:05:52;;;;;;;5.03;2.60;;;;;;;28.43;38.10;100611.56;10284117;28;20052;-70
2023/06/25 09:10:56;;;;;;;4.32;2.40;;;;;;;28.63;38.27;100600.38;10286249;28;20065;-70
2023/06/25 09:16:03;;;;;;;3.63;2.30;;;;;;;28.82;36.87;100600.44;10268829;28;20057;-69
2023/06/25 09:21:06;;;;;;;3.67;2.30;;;;;;;29.00;36.51;100596.09;10262581;28;20055;-69
2023/06/25 09:26:10;;;;;;;5.20;2.08;;;;;;;29.29;36.11;100586.13;10283911;28;20047;-68
2023/06/25 09:31:16;;;;;;;3.10;2.60;;;;;;;29.37;35.44;100572.44;10283992;28;20115;-68
2023/06/25 09:36:19;;;;;;;4.35;2.35;;;;;;;29.49;35.45;100577.53;10285683;28;20066;-69
2023/06/25 09:41:43;;;;;;;4.70;2.58;;;;;;;29.79;34.89;100569.97;10268221;28;20055;-69
2023/06/25 09:46:48;;;;;;;2.45;1.83;;;;;;;29.96;34.42;100561.13;10266265;28;20390;-69
2023/06/25 09:51:58;;;;;;;3.47;1.87;;;;;;;30.15;33.28;100561.88;10283543;28;20035;-70
2023/06/25 09:57:04;;;;;;;2.78;1.95;;;;;;;30.26;32.60;100557.03;10266758;28;20046;-69
2023/06/25 10:02:06;;;;;;;;;;;;;;;30.39;33.75;100544.34;10283886;28;20142;-69
2023/06/25 10:07:08;;;;;;;3.83;2.08;;;;;;;30.69;32.48;100547.66;10282664;28;19922;-70
2023/06/25 10:12:10;;;;;;;2.72;2.13;;;;;;;30.94;32.18;100538.06;10283522;28;20043;-70
2023/06/25 10:17:12;;;;;;;2.83;2.00;;;;;;;30.92;32.11;100535.59;10281915;28;20043;-69
2023/06/25 10:22:16;;;;;;;7.47;6.45;;;;;;;30.77;31.59;100530.31;10281149;28;20133;-69
2023/06/25 10:27:21;;;;;;;5.50;2.70;;;;;;;30.82;31.41;100519.91;10281166;28;20081;-71
2023/06/25 10:32:25;;;;;;;4.28;2.05;;;;;;;31.10;31.21;100519.13;10280373;28;20058;-70
2023/06/25 10:37:31;;;;;;;5.25;3.17;;;;;;;31.29;30.50;100510.69;10282688;28;20085;-70
2023/06/25 10:42:33;;;;;;;4.47;2.00;;;;;;;31.36;29.99;100502.72;10281649;28;20078;-70
2023/06/25 10:47:35;;;;;;;1.88;1.70;;;;;;;31.48;30.12;100505.84;10282259;28;20142;-69
2023/06/25 10:52:37;;;;;;;2.53;1.65;;;;;;;31.73;30.09;100495.22;10280359;28;20047;-69
2023/06/25 10:57:38;;;;;;;2.25;1.90;;;;;;;31.94;30.07;100495.56;10264679;28;20046;-69
2023/06/25 11:02:39;;;;;;;2.20;2.00;;;;;;;32.11;29.38;100495.72;10279249;28;20051;-69
2023/06/25 11:07:41;;;;;;;2.40;1.70;;;;;;;32.32;29.56;100493.19;10265833;28;20386;-70
2023/06/25 11:12:43;;;;;;;1.75;1.55;;;;;;;32.41;29.35;100482.13;10263518;28;20050;-69
2023/06/25 11:17:45;;;;;;;4.55;2.47;;;;;;;32.35;28.15;100473.09;10280774;28;20495;-70
2023/06/25 11:22:47;;;;;;;2.97;1.48;;;;;;;32.22;27.88;100471.22;10279154;28;20051;-70
2023/06/25 11:28:04;;;;;;;2.00;1.58;;;;;;;32.52;27.93;100466.78;10279186;28;20140;-70
2023/06/25 11:33:12;;;;;;;3.95;2.47;;;;;;;32.86;27.42;100458.88;10278410;28;20046;-70
2023/06/25 11:38:24;;;;;;;2.65;2.03;;;;;;;33.05;26.98;100447.47;10278784;28;20694;-70
2023/06/25 11:43:26;;;;;;;1.75;1.50;;;;;;;33.28;27.34;100442.63;10280325;28;20051;-69
2023/06/25 11:48:29;;;;;;;2.88;1.67;;;;;;;33.48;26.96;100435.56;10278584;28;20059;-68
2023/06/25 11:53:31;;;;;;;3.75;2.13;;;;;;;33.59;26.55;100423.75;10260927;28;20398;-68
2023/06/25 11:58:33;;;;;;;2.53;2.00;;;;;;;33.81;26.14;100427.53;10279591;28;20579;-70
2023/06/25 12:03:34;;;;;;;4.22;1.60;;;;;;;34.01;25.35;100423.19;10279042;28;20498;-70
2023/06/25 12:08:36;;;;;;;4.45;2.13;;;;;;;34.09;25.54;100413.97;10278980;28;20058;-69
2023/06/25 12:13:37;;;;;;;2.38;2.17;;;;;;;34.38;25.70;100420.78;10279533;28;20073;-68
2023/06/25 12:18:39;;;;;;;3.13;1.88;;;;;;;34.12;25.37;100409.69;10260856;28;20051;-68
2023/06/25 12:23:40;;;;;;;2.17;1.98;;;;;;;34.23;24.88;100399.03;10279635;28;20051;-68
2023/06/25 12:28:42;;;;;;;3.20;2.33;;;;;;;34.04;25.42;100394.63;10257629;28;20094;-69
2023/06/25 12:33:43;;;;;;;2.10;1.40;;;;;;;34.61;24.35;100396.19;10278357;28;20047;-69
2023/06/25 12:38:44;;;;;;;2.97;1.88;;;;;;;35.13;24.46;100383.88;10284025;28;20069;-69
2023/06/25 12:43:46;;;;;;;3.28;2.00;;;;;;;35.48;24.00;100376.00;10291325;28;20054;-68
2023/06/25 12:48:48;;;;;;;2.92;2.10;;;;;;;35.87;23.72;100370.22;10267252;28;20502;-68
2023/06/25 12:53:49;;;;;;;2.33;2.00;;;;;;;35.50;23.69;100372.88;10290440;28;20054;-68
2023/06/25 12:58:50;;;;;;;2.65;1.77;;;;;;;35.76;23.67;100369.03;10290739;28;20061;-68
2023/06/25 13:03:52;;;;;;;2.63;1.80;;;;;;;36.29;23.31;100364.44;10287850;28;21095;-68
2023/06/25 13:08:53;;;;;;;5.45;2.40;;;;;;;36.20;22.91;100356.19;10289142;28;20078;-68
2023/06/25 13:13:55;;;;;;;2.10;1.90;;;;;;;36.03;22.86;100350.75;10289319;28;20047;-69
2023/06/25 13:18:56;;;;;;;2.22;1.60;;;;;;;36.48;21.86;100356.28;10287505;28;20081;-69
2023/06/25 13:23:58;;;;;;;1.85;1.65;;;;;;;36.91;22.45;100352.03;10291624;28;20039;-70
2023/06/25 13:28:59;;;;;;;3.08;1.83;;;;;;;36.96;21.85;100350.94;10289712;28;20466;-69
2023/06/25 13:34:01;;;;;;;2.45;1.73;;;;;;;36.84;22.28;100337.78;10289773;28;20050;-68
2023/06/25 13:39:02;;;;;;;3.95;2.00;;;;;;;37.80;21.00;100338.91;10290362;28;20055;-70
2023/06/25 13:44:04;;;;;;;3.55;1.85;;;;;;;38.68;20.62;100330.22;10289733;28;20062;-68
2023/06/25 13:49:05;;;;;;;2.30;2.10;;;;;;;39.47;19.65;100329.06;10268815;28;20066;-69
2023/06/25 13:54:07;;;;;;;2.50;2.10;;;;;;;40.25;18.78;100328.00;10282131;28;20058;-68
2023/06/25 13:59:09;;;;;;;3.85;1.73;;;;;;;41.53;17.77;100305.53;10281442;28;20047;-68
2023/06/25 14:04:11;;;;;;;2.17;1.67;;;;;;;43.05;16.48;100307.38;10283957;28;20042;-68
2023/06/25 14:09:13;;;;;;;1.70;1.60;;;;;;;43.45;15.64;100294.13;10282983;28;20051;-68
2023/06/25 14:14:14;;;;;;;2.88;1.60;;;;;;;42.37;16.36;100296.53;10265689;28;20043;-68
2023/06/25 14:19:16;;;;;;;4.13;2.17;;;;;;;41.39;16.97;100292.06;10283685;28;20043;-68
2023/06/25 14:24:18;;;;;;;1.88;1.63;;;;;;;40.71;17.56;100291.22;10282595;28;20058;-68
2023/06/25 14:29:20;;;;;;;3.15;1.63;;;;;;;41.15;16.48;100278.47;10262306;28;20433;-68
2023/06/25 14:34:21;;;;;;;2.45;1.75;;;;;;;41.94;16.36;100277.22;10261783;28;20429;-68
2023/06/25 14:39:23;;;;;;;2.58;1.80;;;;;;;40.94;16.73;100274.22;10263033;28;20042;-68
2023/06/25 14:44:24;;;;;;;2.40;1.52;;;;;;;41.44;16.98;100265.50;10281469;28;20402;-68
2023/06/25 14:49:26;;;;;;;1.98;1.63;;;;;;;41.72;16.33;100258.50;10262229;28;20059;-69
2023/06/25 14:54:27;;;;;;;1.60;1.42;;;;;;;41.39;16.60;100263.84;10281381;28;20408;-69
2023/06/25 14:59:29;;;;;;;2.55;1.58;;;;;;;41.49;16.87;100253.03;10263078;28;20043;-69
2023/06/25 15:04:31;;;;;;;1.75;1.65;;;;;;;41.36;16.52;100249.72;10280850;28;20046;-69
2023/06/25 15:09:33;;;;;;;1.92;1.73;;;;;;;41.33;16.79;100247.66;10279880;28;20163;-67
2023/06/25 15:14:34;;;;;;;2.58;1.77;;;;;;;41.37;16.85;100240.03;10262779;28;20065;-68
2023/06/25 15:19:36;;;;;;;1.38;1.27;;;;;;;41.57;17.08;100237.78;10279653;28;20054;-68
2023/06/25 15:24:37;;;;;;;1.63;1.40;;;;;;;41.71;16.04;100229.47;10281542;28;21483;-68
2023/06/25 15:29:39;;;;;;;1.83;1.50;;;;;;;41.68;16.80;100218.94;10262819;28;20121;-69
2023/06/25 15:34:40;;;;;;;1.92;1.65;;;;;;;41.44;17.07;100211.88;10280253;28;20042;-69
2023/06/25 15:39:42;;;;;;;2.65;1.63;;;;;;;41.49;16.82;100207.88;10279749;28;20142;-69
2023/06/25 15:44:43;;;;;;;2.45;1.50;;;;;;;41.64;16.23;100206.81;10261058;28;20421;-68
2023/06/25 15:49:45;;;;;;;3.92;1.60;;;;;;;41.39;16.41;100198.94;10280334;28;20046;-69
2023/06/25 15:54:47;;;;;;;2.60;1.50;;;;;;;41.65;16.62;100191.53;10278320;28;20050;-69
2023/06/25 15:59:48;;;;;;;3.00;1.77;;;;;;;41.90;16.18;100180.38;10278796;28;20525;-69
2023/06/25 16:04:50;;;;;;;1.55;1.42;;;;;;;42.17;15.78;100175.31;10279336;28;20047;-70
2023/06/25 16:09:52;;;;;;;1.38;1.10;;;;;;;42.45;15.36;100173.84;10276915;28;20054;-70
2023/06/25 16:14:53;;;;;;;3.60;1.50;;;;;;;42.55;15.70;100169.44;10275564;28;20058;-69
2023/06/25 16:19:55;;;;;;;2.55;1.70;;;;;;;42.20;14.94;100165.22;10279384;28;20057;-70
2023/06/25 16:25:11;;;;;;;1.73;1.42;;;;;;;42.24;15.04;100168.06;10278406;28;20117;-71
2023/06/25 16:30:13;;;;;;;3.45;1.60;;;;;;;42.03;15.34;100157.50;10276366;28;20058;-69
2023/06/25 16:35:14;;;;;;;3.97;1.52;;;;;;;42.09;15.40;100162.34;10277659;28;20039;-70
2023/06/25 16:40:16;;;;;;;1.90;1.42;;;;;;;42.42;15.12;100162.47;10259269;28;20129;-70
2023/06/25 16:45:18;;;;;;;1.45;1.33;;;;;;;42.87;15.02;100158.22;10277696;28;20073;-71
2023/06/25 16:50:19;;;;;;;1.90;1.70;;;;;;;43.19;14.07;100154.59;10273765;28;20150;-70
2023/06/25 16:55:21;;;;;;;2.42;1.77;;;;;;;43.05;14.69;100151.75;10276997;28;20457;-71
2023/06/25 17:00:22;;;;;;;1.92;1.83;;;;;;;42.94;14.99;100158.22;10251356;28;20047;-72
2023/06/25 17:05:24;;;;;;;3.10;1.90;;;;;;;43.12;14.81;100149.75;10279189;28;20046;-69
2023/06/25 17:10:27;;;;;;;2.28;1.42;;;;;;;43.14;14.53;100161.47;10276949;28;20173;-69
2023/06/25 17:15:28;;;;;;;2.15;1.88;;;;;;;43.08;14.66;100142.47;10276313;28;20069;-70
2023/06/25 17:20:30;;;;;;;3.33;2.42;;;;;;;43.24;14.25;100147.75;10277040;28;20406;-70
2023/06/25 17:25:31;;;;;;;3.15;2.25;;;;;;;42.93;14.56;100153.75;10265094;28;20058;-69
2023/06/25 17:30:33;;;;;;;2.45;1.83;;;;;;;42.83;15.27;100139.59;10282640;28;20038;-69
2023/06/25 17:35:34;;;;;;;2.85;2.28;;;;;;;42.88;15.09;100150.56;10282824;28;20050;-70
2023/06/25 17:40:36;;;;;;;2.42;2.22;;;;;;;42.53;15.31;100152.84;10284616;28;20051;-70
2023/06/25 17:45:38;;;;;;;3.22;2.63;;;;;;;42.51;14.73;100154.47;10283910;28;20050;-68
2023/06/25 17:50:40;;;;;;;3.28;2.25;;;;;;;42.25;15.33;100155.56;10266485;28;20479;-69
2023/06/25 17:55:41;;;;;;;3.22;2.00;;;;;;;42.05;15.06;100155.09;10283872;28;20039;-69
2023/06/25 18:00:43;;;;;;;1.95;1.65;;;;;;;41.93;15.81;100147.72;10281739;28;20043;-71
2023/06/25 18:05:44;;;;;;;1.83;1.63;;;;;;;41.95;15.75;100150.97;10281895;28;20074;-70
2023/06/25 18:10:51;;;;;;;4.00;1.63;;;;;;;41.63;15.63;100140.25;10280409;28;20055;-71
2023/06/25 18:15:53;;;;;;;1.92;1.60;;;;;;;41.35;16.17;100152.94;10283078;28;20505;-71
2023/06/25 18:20:54;;;;;;;5.60;1.80;;;;;;;40.50;16.99;100150.03;10282860;28;20051;-70
2023/06/25 18:25:56;;;;;;;2.20;1.77;;;;;;;39.54;17.66;100148.31;10280667;28;20050;-70
2023/06/25 18:30:58;;;;;;;4.45;2.10;;;;;;;38.62;19.23;100145.44;10279299;28;20047;-70
2023/06/25 18:36:00;;;;;;;4.18;2.05;;;;;;;37.74;20.06;100145.91;10281455;28;20042;-70
2023/06/25 18:41:01;;;;;;;6.20;2.60;;;;;;;36.99;20.79;100137.25;10283099;28;20051;-70
2023/06/25 18:46:03;;;;;;;3.33;2.08;;;;;;;36.27;21.74;100137.22;10266662;28;20406;-70
2023/06/25 18:51:04;;;;;;;4.68;3.03;;;;;;;35.50;22.63;100135.19;10280947;28;20129;-70
2023/06/25 18:56:06;;;;;;;4.65;2.50;;;;;;;34.93;22.69;100143.28;10280817;28;20042;-69
2023/06/25 19:01:07;;;;;;;4.80;2.08;;;;;;;34.41;24.14;100143.75;10263723;28;21145;-70
2023/06/25 19:06:09;;;;;;;4.35;2.50;;;;;;;33.94;24.80;100124.41;10281235;28;20050;-69
2023/06/25 19:11:10;;;;;;;6.63;3.05;;;;;;;33.46;25.11;100128.47;10280470;28;20043;-70
2023/06/25 19:16:12;;;;;;;3.10;2.13;;;;;;;33.05;26.31;100132.69;10281011;28;20042;-70
2023/06/25 19:21:13;;;;;;;4.93;3.40;;;;;;;32.67;26.52;100131.47;10276844;28;20058;-70
2023/06/25 19:26:15;;;;;;;3.70;2.60;;;;;;;32.34;27.02;100131.97;10279948;28;20061;-70
2023/06/25 19:31:16;;;;;;;3.85;3.20;;;;;;;32.03;27.39;100137.69;10258733;28;20383;-69
2023/06/25 19:36:18;;;;;;;5.43;2.97;;;;;;;31.70;28.11;100138.09;10278251;28;20054;-66
2023/06/25 19:41:19;;;;;;;4.82;2.75;;;;;;;31.39;28.50;100143.69;10281856;28;20160;-66
2023/06/25 19:46:21;;;;;;;3.75;2.92;;;;;;;31.12;28.99;100136.38;10283471;28;20524;-65
2023/06/25 19:51:23;;;;;;;3.00;2.67;;;;;;;30.87;29.95;100148.97;10279537;28;20062;-69
2023/06/25 19:56:24;;;;;;;7.57;2.20;;;;;;;30.58;30.30;100153.84;10273662;28;20103;-67
2023/06/25 20:01:26;;;;;;;6.05;2.72;;;;;;;30.25;31.15;100156.81;10273384;28;20997;-67
2023/06/25 20:06:27;;;;;;;3.90;2.60;;;;;;;29.82;31.78;100156.41;10283550;28;20129;-64
2023/06/25 20:11:29;;;;;;;4.53;2.28;;;;;;;29.60;32.26;100157.09;10283208;28;20134;-64
2023/06/25 20:16:30;;;;;;;5.75;2.70;;;;;;;29.37;33.01;100165.31;10265061;28;20050;-64
2023/06/25 20:21:32;;;;;;;6.53;3.25;;;;;;;29.15;34.19;100162.38;10280276;28;20047;-65
2023/06/25 20:26:33;;;;;;;6.15;2.65;;;;;;;28.91;34.21;100159.75;10283407;28;20054;-65
2023/06/25 20:31:35;;;;;;;3.97;2.50;;;;;;;28.54;35.27;100165.06;10280607;28;20061;-64
2023/06/25 20:36:36;;;;;;;2.78;2.17;;;;;;;28.19;36.29;100163.63;10284401;28;20089;-66
2023/06/25 20:41:37;;;;;;;4.75;3.38;;;;;;;27.88;37.07;100164.91;10281635;28;20057;-67
2023/06/25 20:46:39;;;;;;;5.88;2.65;;;;;;;27.65;37.78;100174.00;10254728;28;20055;-66
2023/06/25 20:51:40;;;;;;;4.90;2.83;;;;;;;27.60;38.41;100171.28;10279389;28;20111;-67
2023/06/25 20:56:42;;;;;;;5.35;2.50;;;;;;;27.55;38.99;100174.09;10281333;28;20054;-71
2023/06/25 21:01:43;;;;;;;4.93;3.40;;;;;;;27.36;39.86;100174.84;10284501;28;20406;-74
2023/06/25 21:06:45;;;;;;;9.38;3.38;;;;;;;27.21;40.38;100178.59;10270797;28;20529;-72
2023/06/25 21:11:46;;;;;;;4.60;3.50;;;;;;;27.02;40.88;100175.72;10268575;28;20126;-67
2023/06/25 21:16:48;;;;;;;6.80;3.45;;;;;;;26.76;41.00;100175.13;10285775;28;20134;-63
2023/06/25 21:21:49;;;;;;;4.07;3.38;;;;;;;26.36;41.38;100182.53;10286584;28;20113;-63
2023/06/25 21:26:51;;;;;;;7.18;3.65;;;;;;;26.10;42.01;100170.84;10285262;28;20101;-66
2023/06/25 21:31:52;;;;;;;4.55;2.78;;;;;;;25.84;42.63;100183.91;10283322;28;20073;-63
2023/06/25 21:36:53;;;;;;;4.47;2.50;;;;;;;25.64;42.86;100182.06;10286206;28;20054;-62
2023/06/25 21:41:55;;;;;;;7.47;3.40;;;;;;;25.66;42.58;100182.59;10267631;28;20050;-62
2023/06/25 21:46:56;;;;;;;3.95;2.92;;;;;;;25.55;42.53;100187.28;10282794;28;20050;-62
2023/06/25 21:51:59;;;;;;;4.85;3.22;;;;;;;25.44;43.08;100174.69;10284924;28;20059;-63
2023/06/25 21:57:01;;;;;;;3.97;3.13;;;;;;;25.31;43.25;100179.66;10283913;28;20054;-62
2023/06/25 22:02:03;;;;;;;3.80;2.47;;;;;;;25.30;43.72;100180.78;10284136;28;20054;-64
2023/06/25 22:07:05;;;;;;;4.88;3.05;;;;;;;25.27;43.97;100183.25;10284739;28;20077;-63
2023/06/25 22:12:07;;;;;;;4.95;3.45;;;;;;;25.21;44.15;100182.41;10282860;28;20514;-63
2023/06/25 22:17:08;;;;;;;5.03;3.30;;;;;;;25.07;43.94;100178.56;10264346;28;20051;-64
2023/06/25 22:22:09;;;;;;;6.05;3.08;;;;;;;24.90;44.39;100181.59;10283110;28;20078;-62
2023/06/25 22:27:11;;;;;;;4.78;3.30;;;;;;;24.81;44.79;100184.09;10282387;28;20704;-61
2023/06/25 22:32:13;;;;;;;6.95;3.63;;;;;;;24.70;45.21;100183.28;10282387;28;20051;-63
2023/06/25 22:37:14;;;;;;;4.43;3.38;;;;;;;24.59;45.79;100189.84;10284278;28;20979;-62
2023/06/25 22:42:16;;;;;;;6.65;3.78;;;;;;;24.42;45.91;100181.81;10281921;28;20054;-63
2023/06/25 22:47:17;;;;;;;5.55;2.85;;;;;;;24.34;46.07;100174.13;10282200;28;20058;-62
2023/06/25 22:52:19;;;;;;;3.72;2.83;;;;;;;24.30;46.40;100184.00;10282390;28;20074;-61
2023/06/25 22:57:20;;;;;;;4.72;3.17;;;;;;;24.21;46.76;100175.47;10281750;28;20058;-62
2023/06/25 23:02:22;;;;;;;5.50;3.35;;;;;;;24.13;47.18;100167.75;10279651;28;20453;-62
2023/06/25 23:07:23;;;;;;;3.97;3.17;;;;;;;24.05;47.52;100182.00;10281519;28;20055;-62